createdAt,value
2019-06-20T00:01:41.840Z,18.70
2019-06-20T00:04:10.276Z,18.70
2019-06-20T00:06:38.741Z,18.70
2019-06-20T00:09:07.931Z,18.70
2019-06-20T00:11:36.529Z,18.70
2019-06-20T00:14:05.010Z,18.70
2019-06-20T00:16:33.720Z,18.70
2019-06-20T00:19:02.153Z,18.80
2019-06-20T00:21:30.593Z,18.70
2019-06-20T00:23:59.020Z,18.60
2019-06-20T00:26:27.474Z,18.60
2019-06-20T00:28:55.896Z,18.40
2019-06-20T00:31:24.344Z,18.40
2019-06-20T00:33:52.793Z,18.40
2019-06-20T00:36:21.285Z,18.40
2019-06-20T00:38:49.753Z,18.30
2019-06-20T00:41:18.179Z,18.30
2019-06-20T00:43:46.604Z,18.40
2019-06-20T00:46:15.313Z,18.40
2019-06-20T00:48:43.743Z,18.40
2019-06-20T00:51:12.192Z,18.50
2019-06-20T00:53:40.617Z,18.40
2019-06-20T00:56:09.049Z,18.50
2019-06-20T00:58:37.496Z,18.50
2019-06-20T01:01:06.315Z,18.60
2019-06-20T01:03:34.750Z,18.60
2019-06-20T01:06:03.180Z,18.70
2019-06-20T01:08:31.605Z,18.70
2019-06-20T01:11:00.042Z,18.70
2019-06-20T01:13:33.693Z,18.60
2019-06-20T01:15:58.624Z,18.60
2019-06-20T01:18:27.048Z,18.70
2019-06-20T01:20:55.497Z,18.70
2019-06-20T01:23:23.914Z,18.60
2019-06-20T01:25:52.357Z,18.60
2019-06-20T01:28:20.787Z,18.70
2019-06-20T01:30:49.249Z,18.60
2019-06-20T01:33:17.661Z,18.60
2019-06-20T01:35:47.415Z,18.60
2019-06-20T01:38:15.860Z,18.60
2019-06-20T01:40:44.287Z,18.50
2019-06-20T01:43:12.714Z,18.50
2019-06-20T01:45:41.260Z,18.50
2019-06-20T01:48:09.754Z,18.40
2019-06-20T01:50:38.187Z,18.40
2019-06-20T01:53:06.622Z,18.40
2019-06-20T01:55:35.045Z,18.40
2019-06-20T01:58:03.484Z,18.40
2019-06-20T02:00:43.660Z,18.40
2019-06-20T02:03:12.730Z,18.50
2019-06-20T02:05:41.169Z,18.50
2019-06-20T02:08:09.685Z,18.40
2019-06-20T02:10:38.115Z,18.40
2019-06-20T02:13:06.563Z,18.40
2019-06-20T02:15:35.076Z,18.40
2019-06-20T02:18:04.442Z,18.40
2019-06-20T02:20:47.770Z,18.50
2019-06-20T02:23:16.272Z,18.60
2019-06-20T02:25:44.968Z,18.50
2019-06-20T02:28:13.421Z,18.50
2019-06-20T02:30:41.858Z,18.50
2019-06-20T02:33:10.356Z,18.40
2019-06-20T02:35:38.812Z,18.40
2019-06-20T02:38:07.265Z,18.40
2019-06-20T02:40:35.764Z,18.30
2019-06-20T02:43:04.442Z,18.30
2019-06-20T02:45:36.848Z,18.40
2019-06-20T02:48:06.018Z,18.30
2019-06-20T02:50:34.681Z,18.30
2019-06-20T02:53:04.262Z,18.30
2019-06-20T02:55:33.494Z,18.30
2019-06-20T02:58:02.303Z,18.30
2019-06-20T03:00:42.672Z,18.40
2019-06-20T03:03:11.103Z,18.40
2019-06-20T03:05:39.795Z,18.30
2019-06-20T03:08:08.225Z,18.30
2019-06-20T03:10:36.658Z,18.30
2019-06-20T03:13:05.152Z,18.30
2019-06-20T03:15:33.573Z,18.30
2019-06-20T03:18:02.018Z,18.30
2019-06-20T03:20:30.759Z,18.40
2019-06-20T03:22:59.184Z,18.40
2019-06-20T03:25:27.626Z,18.60
2019-06-20T03:27:56.306Z,18.70
2019-06-20T03:30:24.750Z,18.70
2019-06-20T03:32:53.170Z,18.70
2019-06-20T03:35:21.629Z,18.70
2019-06-20T03:37:50.367Z,18.70
2019-06-20T03:40:19.185Z,18.70
2019-06-20T03:42:47.629Z,18.60
2019-06-20T03:45:16.194Z,18.50
2019-06-20T03:47:44.613Z,18.50
2019-06-20T03:50:13.177Z,18.50
2019-06-20T03:52:41.604Z,18.40
2019-06-20T03:55:10.097Z,18.40
2019-06-20T03:57:38.521Z,18.30
2019-06-20T04:00:09.990Z,18.20
2019-06-20T04:02:38.432Z,18.20
2019-06-20T04:05:07.104Z,18.20
2019-06-20T04:07:35.597Z,18.10
2019-06-20T04:10:04.973Z,18.10
2019-06-20T04:12:33.417Z,18.10
2019-06-20T04:15:15.063Z,18.10
2019-06-20T04:17:31.991Z,18.20
2019-06-20T04:20:00.433Z,18.20
2019-06-20T04:22:28.861Z,18.20
2019-06-20T04:24:57.291Z,18.20
2019-06-20T04:27:25.737Z,18.30
2019-06-20T04:29:54.174Z,18.30
2019-06-20T04:32:22.624Z,18.30
2019-06-20T04:34:51.334Z,18.30
2019-06-20T04:37:19.785Z,18.40
2019-06-20T04:39:48.246Z,18.40
2019-06-20T04:42:18.790Z,18.40
2019-06-20T04:44:46.910Z,18.50
2019-06-20T04:47:16.545Z,18.50
2019-06-20T04:49:44.994Z,18.60
2019-06-20T04:52:13.512Z,18.60
2019-06-20T04:54:41.957Z,18.70
2019-06-20T04:57:10.397Z,18.70
2019-06-20T04:59:38.845Z,18.70
2019-06-20T05:02:07.355Z,18.80
2019-06-20T05:04:35.785Z,18.80
2019-06-20T05:07:20.547Z,18.90
2019-06-20T05:09:48.973Z,18.90
2019-06-20T05:12:17.446Z,19.00
2019-06-20T05:14:45.873Z,19.00
2019-06-20T05:17:14.329Z,19.10
2019-06-20T05:19:42.762Z,19.20
2019-06-20T05:22:11.210Z,19.20
2019-06-20T05:24:39.658Z,19.10
2019-06-20T05:27:08.109Z,19.10
2019-06-20T05:29:36.782Z,19.10
2019-06-20T05:32:05.251Z,19.20
2019-06-20T05:34:33.693Z,19.30
2019-06-20T05:37:02.253Z,19.30
2019-06-20T05:39:30.689Z,19.40
2019-06-20T05:41:59.117Z,19.50
2019-06-20T05:44:27.567Z,19.50
2019-06-20T05:47:11.515Z,19.60
2019-06-20T05:49:26.169Z,15.70
2019-06-20T05:51:54.606Z,19.60
2019-06-20T05:54:23.068Z,19.60
2019-06-20T05:56:51.498Z,19.50
2019-06-20T05:59:19.949Z,19.50
2019-06-20T06:01:48.404Z,19.50
2019-06-20T06:04:16.870Z,19.60
2019-06-20T06:06:45.297Z,19.60
2019-06-20T06:09:13.879Z,19.60
2019-06-20T06:11:42.357Z,19.60
2019-06-20T06:14:10.793Z,19.60
2019-06-20T06:16:39.486Z,19.60
2019-06-20T06:19:07.958Z,19.50
2019-06-20T06:21:36.468Z,19.50
2019-06-20T06:24:04.975Z,19.50
2019-06-20T06:26:33.402Z,19.60
2019-06-20T06:29:02.015Z,19.60
2019-06-20T06:31:30.577Z,19.50
2019-06-20T06:34:00.574Z,19.50
2019-06-20T06:36:29.062Z,19.40
2019-06-20T06:38:57.552Z,19.40
2019-06-20T06:41:25.990Z,19.40
2019-06-20T06:43:54.424Z,19.30
2019-06-20T06:46:22.868Z,19.20
2019-06-20T06:48:51.320Z,19.20
2019-06-20T06:51:19.778Z,19.20
2019-06-20T06:53:48.549Z,19.20
2019-06-20T06:56:17.100Z,19.20
2019-06-20T06:58:45.605Z,19.10
2019-06-20T07:01:14.055Z,19.10
2019-06-20T07:03:42.814Z,19.10
2019-06-20T07:06:11.321Z,19.10
2019-06-20T07:08:39.788Z,19.10
2019-06-20T07:11:08.222Z,19.10
2019-06-20T07:13:37.479Z,19.20
2019-06-20T07:16:06.012Z,19.30
2019-06-20T07:18:34.840Z,19.30
2019-06-20T07:21:03.339Z,19.20
2019-06-20T07:23:33.647Z,19.30
2019-06-20T07:26:05.799Z,19.30
2019-06-20T07:28:38.556Z,19.20
2019-06-20T07:31:07.129Z,19.10
2019-06-20T07:33:35.558Z,19.10
2019-06-20T07:36:04.367Z,19.10
2019-06-20T07:38:33.938Z,19.20
2019-06-20T07:41:02.393Z,19.20
2019-06-20T07:43:30.893Z,19.20
2019-06-20T07:46:02.843Z,19.10
2019-06-20T07:48:29.584Z,19.00
2019-06-20T07:50:58.073Z,18.90
2019-06-20T07:53:26.554Z,18.90
2019-06-20T07:55:55.013Z,19.10
2019-06-20T07:58:23.454Z,19.20
2019-06-20T08:00:51.898Z,19.40
2019-06-20T08:03:20.341Z,19.50
2019-06-20T08:05:49.042Z,19.50
2019-06-20T08:08:17.469Z,19.60
2019-06-20T08:10:45.921Z,19.70
2019-06-20T08:13:14.363Z,19.80
2019-06-20T08:15:42.797Z,19.70
2019-06-20T08:18:11.233Z,19.80
2019-06-20T08:20:39.673Z,19.90
2019-06-20T08:23:08.118Z,19.90
2019-06-20T08:25:36.639Z,20.00
2019-06-20T08:28:06.616Z,20.10
2019-06-20T08:30:37.654Z,20.10
2019-06-20T08:33:11.992Z,20.00
2019-06-20T08:35:38.498Z,20.00
2019-06-20T08:38:07.539Z,20.10
2019-06-20T08:40:37.878Z,20.20
2019-06-20T08:43:06.464Z,20.20
2019-06-20T08:45:36.694Z,20.30
2019-06-20T08:48:05.318Z,20.30
2019-06-20T08:50:34.265Z,20.30
2019-06-20T08:53:03.672Z,20.20
2019-06-20T08:55:32.145Z,20.30
2019-06-20T08:58:01.645Z,20.40
2019-06-20T09:00:32.933Z,20.50
2019-06-20T09:05:30.913Z,20.50
2019-06-20T09:10:32.883Z,20.70
2019-06-20T09:13:01.445Z,20.60
2019-06-20T09:15:29.893Z,20.60
2019-06-20T09:17:58.503Z,20.70
2019-06-20T09:20:27.117Z,20.90
2019-06-20T09:22:56.728Z,20.90
2019-06-20T09:25:25.236Z,21.00
2019-06-20T09:27:54.423Z,21.00
2019-06-20T09:30:24.130Z,20.90
2019-06-20T09:32:53.860Z,21.00
2019-06-20T09:35:22.569Z,21.20
2019-06-20T09:37:51.907Z,21.00
2019-06-20T09:40:22.109Z,20.70
2019-06-20T09:42:51.781Z,20.70
2019-06-20T09:45:22.410Z,20.70
2019-06-20T09:47:52.120Z,20.60
2019-06-20T09:50:20.990Z,20.50
2019-06-20T09:52:51.347Z,20.50
2019-06-20T09:55:19.693Z,20.30
2019-06-20T09:57:49.108Z,20.30
2019-06-20T10:00:24.562Z,20.40
2019-06-20T10:02:55.385Z,20.50
2019-06-20T10:05:23.218Z,20.50
2019-06-20T10:07:52.295Z,20.60
2019-06-20T10:10:22.839Z,20.70
2019-06-20T10:12:51.816Z,20.80
2019-06-20T10:15:28.551Z,20.70
2019-06-20T10:17:56.985Z,20.80
2019-06-20T10:20:25.746Z,20.80
2019-06-20T10:22:54.276Z,20.90
2019-06-20T10:25:22.804Z,20.80
2019-06-20T10:27:51.646Z,20.60
2019-06-20T10:30:22.165Z,20.50
2019-06-20T10:32:51.031Z,20.60
2019-06-20T10:35:20.119Z,20.80
2019-06-20T10:37:48.673Z,20.70
2019-06-20T10:40:19.388Z,20.70
2019-06-20T10:42:48.138Z,20.80
2019-06-20T10:45:19.209Z,21.00
2019-06-20T10:47:49.031Z,21.30
2019-06-20T10:50:19.453Z,21.10
2019-06-20T10:52:48.166Z,20.80
2019-06-20T10:55:17.577Z,20.60
2019-06-20T10:57:46.738Z,20.60
2019-06-20T11:00:30.312Z,20.70
2019-06-20T11:02:47.422Z,20.80
2019-06-20T11:05:17.631Z,20.80
2019-06-20T11:07:47.426Z,20.80
2019-06-20T11:10:16.810Z,20.80
2019-06-20T11:12:50.231Z,21.10
2019-06-20T11:15:16.324Z,21.30
2019-06-20T11:17:46.179Z,21.50
2019-06-20T11:20:15.445Z,21.40
2019-06-20T11:22:45.289Z,21.50
2019-06-20T11:25:18.983Z,21.60
2019-06-20T11:27:47.313Z,21.30
2019-06-20T11:30:23.869Z,21.30
2019-06-20T11:32:52.321Z,21.50
2019-06-20T11:35:20.751Z,21.70
2019-06-20T11:37:49.182Z,22.00
2019-06-20T11:40:17.986Z,21.90
2019-06-20T11:42:47.023Z,21.80
2019-06-20T11:45:17.325Z,21.80
2019-06-20T11:47:47.127Z,22.00
2019-06-20T11:50:16.820Z,21.90
2019-06-20T11:52:45.839Z,22.20
2019-06-20T11:55:15.402Z,22.30
2019-06-20T11:57:43.977Z,22.40
2019-06-20T12:00:13.193Z,22.20
2019-06-20T12:02:43.679Z,22.00
2019-06-20T12:05:13.505Z,21.90
2019-06-20T12:07:43.540Z,21.70
2019-06-20T12:10:14.490Z,21.70
2019-06-20T12:12:42.930Z,21.60
2019-06-20T12:15:11.927Z,21.50
2019-06-20T12:17:41.764Z,21.30
2019-06-20T12:20:11.147Z,21.20
2019-06-20T12:22:41.304Z,21.00
2019-06-20T12:25:10.793Z,20.90
2019-06-20T12:27:40.650Z,21.10
2019-06-20T12:30:11.816Z,21.20
2019-06-20T12:32:40.702Z,21.50
2019-06-20T12:35:12.912Z,21.80
2019-06-20T12:37:42.578Z,22.20
2019-06-20T12:40:11.911Z,22.30
2019-06-20T12:42:42.738Z,22.70
2019-06-20T12:45:10.587Z,22.70
2019-06-20T12:47:40.235Z,23.00
2019-06-20T12:50:09.400Z,23.00
2019-06-20T12:52:39.064Z,23.10
2019-06-20T12:55:08.310Z,22.90
2019-06-20T12:57:38.423Z,22.70
2019-06-20T13:00:07.848Z,22.70
2019-06-20T13:02:36.344Z,22.60
2019-06-20T13:05:06.066Z,22.30
2019-06-20T13:07:34.624Z,22.10
2019-06-20T13:10:05.008Z,21.90
2019-06-20T13:12:33.447Z,21.80
2019-06-20T13:15:01.874Z,21.90
2019-06-20T13:17:30.306Z,21.90
2019-06-20T13:19:58.752Z,22.00
2019-06-20T13:22:27.201Z,22.10
2019-06-20T13:24:55.625Z,22.20
2019-06-20T13:27:24.066Z,22.40
2019-06-20T13:29:52.595Z,22.50
2019-06-20T13:32:21.084Z,22.70
2019-06-20T13:34:49.538Z,22.90
2019-06-20T13:37:17.968Z,22.90
2019-06-20T13:39:47.412Z,23.00
2019-06-20T13:42:15.918Z,23.10
2019-06-20T13:44:44.354Z,23.10
2019-06-20T13:47:12.775Z,23.20
2019-06-20T13:49:41.543Z,23.30
2019-06-20T13:52:10.029Z,23.10
2019-06-20T13:54:39.643Z,23.00
2019-06-20T13:57:08.643Z,22.80
2019-06-20T13:59:37.066Z,23.00
2019-06-20T14:02:06.971Z,23.10
2019-06-20T14:04:35.648Z,23.20
2019-06-20T14:07:04.131Z,23.50
2019-06-20T14:09:32.564Z,23.50
2019-06-20T14:12:01.001Z,23.30
2019-06-20T14:14:29.437Z,23.30
2019-06-20T14:16:57.869Z,23.40
2019-06-20T14:19:26.317Z,23.70
2019-06-20T14:21:54.845Z,23.40
2019-06-20T14:24:23.545Z,23.20
2019-06-20T14:26:51.961Z,23.30
2019-06-20T14:29:20.423Z,23.20
2019-06-20T14:31:49.228Z,23.10
2019-06-20T14:34:17.833Z,23.10
2019-06-20T14:36:47.753Z,23.20
2019-06-20T14:39:16.496Z,23.30
2019-06-20T14:41:46.331Z,23.40
2019-06-20T14:44:14.850Z,23.50
2019-06-20T14:46:43.276Z,23.70
2019-06-20T14:49:11.720Z,23.60
2019-06-20T14:51:40.155Z,23.60
2019-06-20T14:54:08.602Z,23.50
2019-06-20T14:56:37.048Z,23.40
2019-06-20T14:59:05.541Z,23.40
2019-06-20T15:01:33.971Z,23.70
2019-06-20T15:04:02.467Z,23.80
2019-06-20T15:06:31.097Z,23.80
2019-06-20T15:09:04.748Z,23.80
2019-06-20T15:11:29.673Z,23.80
2019-06-20T15:13:58.097Z,23.70
2019-06-20T15:16:26.538Z,23.70
2019-06-20T15:18:55.751Z,24.00
2019-06-20T15:21:25.121Z,24.00
2019-06-20T15:23:54.432Z,23.40
2019-06-20T15:26:22.947Z,23.00
2019-06-20T15:28:53.286Z,22.70
2019-06-20T15:31:21.532Z,22.70
2019-06-20T15:33:51.506Z,22.70
2019-06-20T15:36:20.357Z,22.50
2019-06-20T15:38:49.440Z,22.30
2019-06-20T15:41:18.293Z,22.10
2019-06-20T15:43:48.075Z,21.90
2019-06-20T15:46:17.062Z,21.80
2019-06-20T15:48:45.483Z,21.70
2019-06-20T15:51:13.919Z,21.50
2019-06-20T15:53:42.383Z,21.70
2019-06-20T15:56:10.879Z,21.90
2019-06-20T15:58:39.314Z,22.20
2019-06-20T16:01:07.757Z,22.10
2019-06-20T16:03:36.178Z,21.90
2019-06-20T16:06:05.263Z,21.80
2019-06-20T16:08:33.685Z,21.70
2019-06-20T16:11:02.129Z,21.80
2019-06-20T16:13:30.559Z,21.90
2019-06-20T16:15:58.995Z,22.20
2019-06-20T16:18:27.430Z,23.30
2019-06-20T16:20:56.197Z,24.30
2019-06-20T16:23:24.632Z,25.30
2019-06-20T16:25:53.075Z,26.10
2019-06-20T16:28:21.508Z,26.20
2019-06-20T16:30:49.927Z,26.20
2019-06-20T16:33:25.046Z,26.40
2019-06-20T16:35:48.526Z,26.30
2019-06-20T16:38:17.009Z,25.70
2019-06-20T16:40:47.581Z,25.40
2019-06-20T16:43:16.088Z,25.40
2019-06-20T16:45:46.470Z,25.10
2019-06-20T16:48:14.896Z,24.90
2019-06-20T16:50:43.404Z,24.70
2019-06-20T16:53:11.854Z,24.60
2019-06-20T16:55:40.435Z,25.00
2019-06-20T16:58:09.326Z,25.60
2019-06-20T17:00:38.293Z,26.10
2019-06-20T17:03:06.775Z,26.30
2019-06-20T17:05:35.221Z,26.50
2019-06-20T17:08:04.318Z,26.80
2019-06-20T17:10:32.743Z,26.30
2019-06-20T17:13:01.434Z,26.10
2019-06-20T17:15:30.245Z,26.10
2019-06-20T17:17:58.681Z,26.10
2019-06-20T17:20:27.215Z,26.00
2019-06-20T17:22:55.645Z,26.00
2019-06-20T17:25:24.236Z,26.00
2019-06-20T17:27:52.738Z,26.10
2019-06-20T17:30:22.921Z,26.00
2019-06-20T17:32:51.351Z,26.10
2019-06-20T17:35:20.005Z,26.40
2019-06-20T17:37:48.437Z,26.80
2019-06-20T17:40:17.836Z,27.40
2019-06-20T17:42:46.764Z,27.20
2019-06-20T17:45:16.236Z,27.10
2019-06-20T17:47:44.701Z,27.30
2019-06-20T17:50:14.335Z,27.00
2019-06-20T17:52:42.780Z,26.60
2019-06-20T17:55:12.794Z,26.30
2019-06-20T17:57:41.310Z,25.90
2019-06-20T18:00:12.873Z,25.80
2019-06-20T18:02:41.324Z,25.90
2019-06-20T18:05:09.984Z,26.10
2019-06-20T18:07:43.250Z,26.10
2019-06-20T18:10:13.251Z,26.00
2019-06-20T18:12:41.753Z,26.10
2019-06-20T18:15:11.986Z,26.00
2019-06-20T18:17:40.414Z,25.80
2019-06-20T18:20:09.673Z,25.50
2019-06-20T18:22:38.218Z,28.10
2019-06-20T18:25:07.191Z,24.60
2019-06-20T18:27:35.628Z,24.00
2019-06-20T18:30:07.191Z,23.50
2019-06-20T18:32:35.683Z,23.30
2019-06-20T18:35:06.912Z,23.00
2019-06-20T18:37:35.342Z,22.70
2019-06-20T18:40:06.619Z,22.50
2019-06-20T18:42:35.073Z,22.40
2019-06-20T18:45:04.932Z,22.40
2019-06-20T18:47:33.480Z,22.30
2019-06-20T18:50:01.952Z,22.20
2019-06-20T18:52:30.406Z,22.10
2019-06-20T18:54:58.876Z,22.00
2019-06-20T18:57:27.371Z,22.00
2019-06-20T18:59:55.881Z,21.90
2019-06-20T19:02:24.320Z,21.90
2019-06-20T19:04:52.737Z,21.70
2019-06-20T19:07:21.170Z,21.60
2019-06-20T19:09:49.858Z,21.50
2019-06-20T19:12:18.306Z,21.40
2019-06-20T19:14:46.786Z,21.30
2019-06-20T19:17:15.213Z,21.30
2019-06-20T19:19:43.645Z,21.30
2019-06-20T19:22:12.082Z,21.30
2019-06-20T19:24:40.513Z,21.30
2019-06-20T19:27:08.985Z,21.30
2019-06-20T19:29:37.727Z,21.30
2019-06-20T19:32:06.333Z,21.30
2019-06-20T19:34:34.930Z,21.30
2019-06-20T19:37:03.446Z,21.30
2019-06-20T19:39:31.986Z,21.30
2019-06-20T19:42:00.430Z,22.80
2019-06-20T19:44:28.866Z,21.20
2019-06-20T19:46:57.297Z,21.10
2019-06-20T19:49:25.728Z,21.10
2019-06-20T19:51:54.181Z,21.10
2019-06-20T19:54:22.689Z,21.00
2019-06-20T19:57:02.116Z,20.90
2019-06-20T19:59:30.634Z,20.80
2019-06-20T20:01:59.131Z,20.60
2019-06-20T20:04:27.561Z,20.60
2019-06-20T20:06:55.987Z,20.50
2019-06-20T20:09:24.428Z,20.40
2019-06-20T20:12:10.695Z,20.30
2019-06-20T20:14:26.404Z,20.20
2019-06-20T20:16:54.835Z,20.10
2019-06-20T20:19:23.285Z,20.10
2019-06-20T20:21:51.719Z,20.00
2019-06-20T20:24:20.161Z,20.00
2019-06-20T20:26:48.606Z,19.90
2019-06-20T20:29:17.300Z,19.70
2019-06-20T20:31:45.741Z,19.60
2019-06-20T20:34:14.204Z,19.60
2019-06-20T20:36:42.897Z,19.50
2019-06-20T20:39:11.652Z,19.30
2019-06-20T20:41:40.163Z,19.10
2019-06-20T20:44:08.655Z,19.00
2019-06-20T20:46:37.145Z,18.80
2019-06-20T20:49:05.819Z,18.80
2019-06-20T20:51:34.290Z,18.70
2019-06-20T20:54:02.777Z,18.70
2019-06-20T20:56:31.303Z,18.70
2019-06-20T20:59:00.101Z,18.40
2019-06-20T21:01:30.491Z,18.20
2019-06-20T21:03:59.929Z,18.00
2019-06-20T21:06:29.209Z,17.90
2019-06-20T21:08:57.641Z,17.90
2019-06-20T21:11:26.083Z,17.80
2019-06-20T21:13:54.518Z,19.20
2019-06-20T21:16:22.977Z,17.70
2019-06-20T21:18:51.427Z,17.70
2019-06-20T21:21:20.105Z,17.70
2019-06-20T21:23:48.542Z,17.60
2019-06-20T21:26:16.976Z,17.60
2019-06-20T21:28:46.162Z,17.60
2019-06-20T21:31:14.603Z,17.60
2019-06-20T21:33:43.062Z,17.60
2019-06-20T21:36:11.839Z,17.50
2019-06-20T21:38:40.265Z,17.50
2019-06-20T21:41:08.827Z,17.40
2019-06-20T21:43:37.252Z,17.50
2019-06-20T21:46:06.888Z,17.40
2019-06-20T21:48:35.493Z,17.30
2019-06-20T21:51:04.033Z,17.30
2019-06-20T21:53:32.461Z,17.20
2019-06-20T21:56:00.928Z,17.20
2019-06-20T21:58:29.613Z,17.20
2019-06-20T22:01:00.212Z,17.20
2019-06-20T22:03:28.716Z,17.10
2019-06-20T22:05:57.183Z,17.10
2019-06-20T22:08:25.609Z,17.00
2019-06-20T22:10:54.047Z,17.00
2019-06-20T22:13:22.477Z,17.00
2019-06-20T22:15:50.932Z,16.90
2019-06-20T22:18:19.449Z,16.90
2019-06-20T22:20:47.896Z,17.00
2019-06-20T22:23:16.420Z,17.00
2019-06-20T22:25:44.846Z,16.90
2019-06-20T22:28:13.452Z,20.50
2019-06-20T22:30:45.092Z,16.90
2019-06-20T22:33:13.716Z,16.80
2019-06-20T22:35:45.803Z,16.80
2019-06-20T22:38:14.107Z,16.80
2019-06-20T22:40:42.597Z,16.70
2019-06-20T22:43:11.042Z,16.70
2019-06-20T22:45:39.466Z,16.70
2019-06-20T22:48:08.058Z,16.70
2019-06-20T22:50:36.488Z,16.60
2019-06-20T22:53:05.304Z,16.50
2019-06-20T22:55:34.285Z,16.50
2019-06-20T22:58:02.722Z,16.50
2019-06-20T23:00:31.237Z,16.50
2019-06-20T23:02:59.665Z,16.40
2019-06-20T23:05:28.113Z,16.50
2019-06-20T23:07:56.568Z,16.40
2019-06-20T23:10:25.090Z,16.40
2019-06-20T23:12:53.536Z,16.40
2019-06-20T23:15:23.320Z,16.40
2019-06-20T23:17:51.748Z,16.40
2019-06-20T23:20:20.412Z,16.40
2019-06-20T23:22:48.924Z,16.40
2019-06-20T23:25:18.216Z,16.30
2019-06-20T23:27:46.637Z,16.30
2019-06-20T23:30:15.833Z,16.20
2019-06-20T23:32:44.318Z,16.30
2019-06-20T23:35:12.750Z,16.30
2019-06-20T23:37:41.165Z,16.30
2019-06-20T23:40:10.530Z,16.30
2019-06-20T23:42:39.208Z,16.20
2019-06-20T23:45:08.992Z,16.10
2019-06-20T23:47:37.436Z,16.10
2019-06-20T23:50:06.777Z,16.10
2019-06-20T23:52:36.894Z,16.10
2019-06-20T23:55:08.173Z,16.10
2019-06-20T23:57:36.585Z,16.10
